sensor_id;sensor_type;location;lat;lon;timestamp;temperature;humidity
52513;DHT22;38422;53.172;6.974;2024-01-16T00:01:17;0.50;99.90
52513;DHT22;38422;53.172;6.974;2024-01-16T00:03:43;0.50;99.90
52513;DHT22;38422;53.172;6.974;2024-01-16T00:06:10;0.50;99.90
52513;DHT22;38422;53.172;6.974;2024-01-16T00:08:35;0.50;99.90
52513;DHT22;38422;53.172;6.974;2024-01-16T00:11:02;0.50;99.90
52513;DHT22;38422;53.172;6.974;2024-01-16T00:13:28;0.50;99.90
52513;DHT22;38422;53.172;6.974;2024-01-16T00:15:54;0.50;99.90
52513;DHT22;38422;53.172;6.974;2024-01-16T00:18:22;0.50;99.90
52513;DHT22;38422;53.172;6.974;2024-01-16T00:20:48;0.50;99.90
52513;DHT22;38422;53.172;6.974;2024-01-16T00:23:14;0.40;99.90
52513;DHT22;38422;53.172;6.974;2024-01-16T00:25:40;0.40;99.90
52513;DHT22;38422;53.172;6.974;2024-01-16T00:28:06;0.40;99.90
52513;DHT22;38422;53.172;6.974;2024-01-16T00:30:32;0.40;99.90
52513;DHT22;38422;53.172;6.974;2024-01-16T00:32:59;0.40;99.90
52513;DHT22;38422;53.172;6.974;2024-01-16T00:35:25;0.40;99.90
52513;DHT22;38422;53.172;6.974;2024-01-16T00:37:51;0.30;99.90
52513;DHT22;38422;53.172;6.974;2024-01-16T00:40:17;0.30;99.90
52513;DHT22;38422;53.172;6.974;2024-01-16T00:42:43;0.30;99.90
52513;DHT22;38422;53.172;6.974;2024-01-16T00:45:09;0.30;99.90
52513;DHT22;38422;53.172;6.974;2024-01-16T00:47:35;0.20;99.90
52513;DHT22;38422;53.172;6.974;2024-01-16T00:50:00;0.20;99.90
52513;DHT22;38422;53.172;6.974;2024-01-16T00:52:28;0.10;99.90
52513;DHT22;38422;53.172;6.974;2024-01-16T00:54:53;0.10;99.90
52513;DHT22;38422;53.172;6.974;2024-01-16T00:57:19;0.00;99.90
52513;DHT22;38422;53.172;6.974;2024-01-16T00:59:48;0.00;99.90
52513;DHT22;38422;53.172;6.974;2024-01-16T01:02:14;0.00;99.90
52513;DHT22;38422;53.172;6.974;2024-01-16T01:04:40;0.00;99.90
52513;DHT22;38422;53.172;6.974;2024-01-16T01:07:09;0.00;99.90
52513;DHT22;38422;53.172;6.974;2024-01-16T01:09:38;0.00;99.90
52513;DHT22;38422;53.172;6.974;2024-01-16T01:12:04;0.00;99.90
52513;DHT22;38422;53.172;6.974;2024-01-16T01:14:29;0.00;99.90
52513;DHT22;38422;53.172;6.974;2024-01-16T01:16:57;0.10;99.90
52513;DHT22;38422;53.172;6.974;2024-01-16T01:19:22;0.10;99.90
52513;DHT22;38422;53.172;6.974;2024-01-16T01:21:48;0.10;99.90
52513;DHT22;38422;53.172;6.974;2024-01-16T01:24:15;0.10;99.90
52513;DHT22;38422;53.172;6.974;2024-01-16T01:26:44;0.00;99.90
52513;DHT22;38422;53.172;6.974;2024-01-16T01:29:10;0.00;99.90
52513;DHT22;38422;53.172;6.974;2024-01-16T01:31:36;0.10;99.90
52513;DHT22;38422;53.172;6.974;2024-01-16T01:34:01;0.10;99.90
52513;DHT22;38422;53.172;6.974;2024-01-16T01:36:30;0.10;99.90
52513;DHT22;38422;53.172;6.974;2024-01-16T01:38:55;0.10;99.90
52513;DHT22;38422;53.172;6.974;2024-01-16T01:41:21;0.10;99.90
52513;DHT22;38422;53.172;6.974;2024-01-16T01:43:47;0.20;99.90
52513;DHT22;38422;53.172;6.974;2024-01-16T01:46:16;0.20;99.90
52513;DHT22;38422;53.172;6.974;2024-01-16T01:48:43;0.20;99.90
52513;DHT22;38422;53.172;6.974;2024-01-16T01:51:13;0.20;99.90
52513;DHT22;38422;53.172;6.974;2024-01-16T01:53:42;0.20;99.90
52513;DHT22;38422;53.172;6.974;2024-01-16T01:56:17;0.10;99.90
52513;DHT22;38422;53.172;6.974;2024-01-16T01:58:45;0.10;99.90
52513;DHT22;38422;53.172;6.974;2024-01-16T02:01:13;0.10;99.90
52513;DHT22;38422;53.172;6.974;2024-01-16T02:03:45;0.10;99.90
52513;DHT22;38422;53.172;6.974;2024-01-16T02:06:11;0.00;99.90
52513;DHT22;38422;53.172;6.974;2024-01-16T02:08:39;0.00;99.90
52513;DHT22;38422;53.172;6.974;2024-01-16T02:11:05;0.00;99.90
52513;DHT22;38422;53.172;6.974;2024-01-16T02:13:31;-0.10;99.90
52513;DHT22;38422;53.172;6.974;2024-01-16T02:15:57;-0.10;99.90
52513;DHT22;38422;53.172;6.974;2024-01-16T02:18:23;-0.10;99.90
52513;DHT22;38422;53.172;6.974;2024-01-16T02:20:48;-0.10;99.90
52513;DHT22;38422;53.172;6.974;2024-01-16T02:23:15;-0.10;99.90
52513;DHT22;38422;53.172;6.974;2024-01-16T02:25:44;-0.10;99.90
52513;DHT22;38422;53.172;6.974;2024-01-16T02:28:10;-0.10;99.90
52513;DHT22;38422;53.172;6.974;2024-01-16T02:30:38;-0.10;99.90
52513;DHT22;38422;53.172;6.974;2024-01-16T02:33:07;-0.10;99.90
52513;DHT22;38422;53.172;6.974;2024-01-16T02:35:33;-0.10;99.90
52513;DHT22;38422;53.172;6.974;2024-01-16T02:37:59;-0.20;99.90
52513;DHT22;38422;53.172;6.974;2024-01-16T02:40:26;-0.20;99.90
52513;DHT22;38422;53.172;6.974;2024-01-16T02:42:52;-0.20;99.90
52513;DHT22;38422;53.172;6.974;2024-01-16T02:45:18;-0.30;99.90
52513;DHT22;38422;53.172;6.974;2024-01-16T02:47:44;-0.30;99.90
52513;DHT22;38422;53.172;6.974;2024-01-16T02:50:10;-0.30;99.90
52513;DHT22;38422;53.172;6.974;2024-01-16T02:52:36;-0.40;99.90
52513;DHT22;38422;53.172;6.974;2024-01-16T02:55:01;-0.40;99.90
52513;DHT22;38422;53.172;6.974;2024-01-16T02:57:27;-0.40;99.90
52513;DHT22;38422;53.172;6.974;2024-01-16T02:59:53;-0.40;99.90
52513;DHT22;38422;53.172;6.974;2024-01-16T03:02:19;-0.40;99.90
52513;DHT22;38422;53.172;6.974;2024-01-16T03:04:45;-0.40;99.90
52513;DHT22;38422;53.172;6.974;2024-01-16T03:07:10;-0.40;99.90
52513;DHT22;38422;53.172;6.974;2024-01-16T03:09:36;-0.40;99.90
52513;DHT22;38422;53.172;6.974;2024-01-16T03:12:02;-0.30;99.90
52513;DHT22;38422;53.172;6.974;2024-01-16T03:14:28;-0.30;99.90
52513;DHT22;38422;53.172;6.974;2024-01-16T03:17:02;-0.30;99.90
52513;DHT22;38422;53.172;6.974;2024-01-16T03:19:28;-0.20;99.90
52513;DHT22;38422;53.172;6.974;2024-01-16T03:21:54;-0.20;99.90
52513;DHT22;38422;53.172;6.974;2024-01-16T03:24:19;-0.20;99.90
52513;DHT22;38422;53.172;6.974;2024-01-16T03:26:45;-0.20;99.90
52513;DHT22;38422;53.172;6.974;2024-01-16T03:29:11;-0.20;99.90
52513;DHT22;38422;53.172;6.974;2024-01-16T03:31:37;-0.10;99.90
52513;DHT22;38422;53.172;6.974;2024-01-16T03:34:03;-0.20;99.90
52513;DHT22;38422;53.172;6.974;2024-01-16T03:36:29;-0.20;99.90
52513;DHT22;38422;53.172;6.974;2024-01-16T03:38:55;-0.20;99.90
52513;DHT22;38422;53.172;6.974;2024-01-16T03:41:20;-0.20;99.90
52513;DHT22;38422;53.172;6.974;2024-01-16T03:43:46;-0.20;99.90
52513;DHT22;38422;53.172;6.974;2024-01-16T03:46:12;-0.20;99.90
52513;DHT22;38422;53.172;6.974;2024-01-16T03:48:37;-0.20;99.90
52513;DHT22;38422;53.172;6.974;2024-01-16T03:51:04;-0.30;99.90
52513;DHT22;38422;53.172;6.974;2024-01-16T03:53:29;-0.20;99.90
52513;DHT22;38422;53.172;6.974;2024-01-16T03:55:55;-0.30;99.90
52513;DHT22;38422;53.172;6.974;2024-01-16T03:58:21;-0.30;99.90
52513;DHT22;38422;53.172;6.974;2024-01-16T04:00:51;-0.40;99.90
52513;DHT22;38422;53.172;6.974;2024-01-16T04:03:19;-0.40;99.90
52513;DHT22;38422;53.172;6.974;2024-01-16T04:05:44;-0.50;99.90
52513;DHT22;38422;53.172;6.974;2024-01-16T04:08:10;-0.50;99.90
52513;DHT22;38422;53.172;6.974;2024-01-16T04:10:37;-0.50;99.90
52513;DHT22;38422;53.172;6.974;2024-01-16T04:13:06;-0.50;99.90
52513;DHT22;38422;53.172;6.974;2024-01-16T04:15:31;-0.60;99.90
52513;DHT22;38422;53.172;6.974;2024-01-16T04:17:57;-0.60;99.90
52513;DHT22;38422;53.172;6.974;2024-01-16T04:20:23;-0.60;99.90
52513;DHT22;38422;53.172;6.974;2024-01-16T04:22:49;-0.60;99.90
52513;DHT22;38422;53.172;6.974;2024-01-16T04:25:14;-0.60;99.90
52513;DHT22;38422;53.172;6.974;2024-01-16T04:27:40;-0.50;99.90
52513;DHT22;38422;53.172;6.974;2024-01-16T04:30:07;-0.50;99.90
52513;DHT22;38422;53.172;6.974;2024-01-16T04:32:33;-0.50;99.90
52513;DHT22;38422;53.172;6.974;2024-01-16T04:34:59;-0.40;99.90
52513;DHT22;38422;53.172;6.974;2024-01-16T04:37:24;-0.40;99.90
52513;DHT22;38422;53.172;6.974;2024-01-16T04:39:50;-0.40;99.90
52513;DHT22;38422;53.172;6.974;2024-01-16T04:42:16;-0.30;99.90
52513;DHT22;38422;53.172;6.974;2024-01-16T04:44:44;-0.40;99.90
52513;DHT22;38422;53.172;6.974;2024-01-16T04:47:09;-0.40;99.90
52513;DHT22;38422;53.172;6.974;2024-01-16T04:49:37;-0.40;99.90
52513;DHT22;38422;53.172;6.974;2024-01-16T04:52:03;-0.40;99.90
52513;DHT22;38422;53.172;6.974;2024-01-16T04:54:31;-0.50;99.90
52513;DHT22;38422;53.172;6.974;2024-01-16T04:56:58;-0.50;99.90
52513;DHT22;38422;53.172;6.974;2024-01-16T04:59:23;-0.50;99.90
52513;DHT22;38422;53.172;6.974;2024-01-16T05:01:49;-0.50;99.90
52513;DHT22;38422;53.172;6.974;2024-01-16T05:04:15;-0.50;99.90
52513;DHT22;38422;53.172;6.974;2024-01-16T05:06:41;-0.60;99.90
52513;DHT22;38422;53.172;6.974;2024-01-16T05:09:06;-0.60;99.90
52513;DHT22;38422;53.172;6.974;2024-01-16T05:11:34;-0.60;99.90
52513;DHT22;38422;53.172;6.974;2024-01-16T05:14:00;-0.60;99.90
52513;DHT22;38422;53.172;6.974;2024-01-16T05:16:26;-0.60;99.90
52513;DHT22;38422;53.172;6.974;2024-01-16T05:18:53;-0.50;99.90
52513;DHT22;38422;53.172;6.974;2024-01-16T05:21:20;-0.50;99.90
52513;DHT22;38422;53.172;6.974;2024-01-16T05:23:48;-0.50;99.90
52513;DHT22;38422;53.172;6.974;2024-01-16T05:26:13;-0.40;99.90
52513;DHT22;38422;53.172;6.974;2024-01-16T05:28:39;-0.40;99.90
52513;DHT22;38422;53.172;6.974;2024-01-16T05:31:07;-0.40;99.90
52513;DHT22;38422;53.172;6.974;2024-01-16T05:33:33;-0.40;99.90
52513;DHT22;38422;53.172;6.974;2024-01-16T05:35:59;-0.40;99.90
52513;DHT22;38422;53.172;6.974;2024-01-16T05:38:25;-0.40;99.90
52513;DHT22;38422;53.172;6.974;2024-01-16T05:40:51;-0.30;99.90
52513;DHT22;38422;53.172;6.974;2024-01-16T05:43:17;-0.40;99.90
52513;DHT22;38422;53.172;6.974;2024-01-16T05:45:43;-0.40;99.90
52513;DHT22;38422;53.172;6.974;2024-01-16T05:48:08;-0.40;99.90
52513;DHT22;38422;53.172;6.974;2024-01-16T05:50:35;-0.40;99.90
52513;DHT22;38422;53.172;6.974;2024-01-16T05:53:01;-0.40;99.90
52513;DHT22;38422;53.172;6.974;2024-01-16T05:55:29;-0.40;99.90
52513;DHT22;38422;53.172;6.974;2024-01-16T05:57:58;-0.40;99.90
52513;DHT22;38422;53.172;6.974;2024-01-16T06:00:29;-0.50;99.90
52513;DHT22;38422;53.172;6.974;2024-01-16T06:02:54;-0.40;99.90
52513;DHT22;38422;53.172;6.974;2024-01-16T06:05:20;-0.40;99.90
52513;DHT22;38422;53.172;6.974;2024-01-16T06:07:46;-0.50;99.90
52513;DHT22;38422;53.172;6.974;2024-01-16T06:10:13;-0.40;99.90
52513;DHT22;38422;53.172;6.974;2024-01-16T06:12:42;-0.40;99.90
52513;DHT22;38422;53.172;6.974;2024-01-16T06:15:08;-0.40;99.90
52513;DHT22;38422;53.172;6.974;2024-01-16T06:17:36;-0.40;99.90
52513;DHT22;38422;53.172;6.974;2024-01-16T06:20:02;-0.40;99.90
52513;DHT22;38422;53.172;6.974;2024-01-16T06:22:28;-0.40;99.90
52513;DHT22;38422;53.172;6.974;2024-01-16T06:24:54;-0.40;99.90
52513;DHT22;38422;53.172;6.974;2024-01-16T06:27:20;-0.40;99.90
52513;DHT22;38422;53.172;6.974;2024-01-16T06:29:46;-0.40;99.90
52513;DHT22;38422;53.172;6.974;2024-01-16T06:32:12;-0.40;99.90
52513;DHT22;38422;53.172;6.974;2024-01-16T06:34:37;-0.30;99.90
52513;DHT22;38422;53.172;6.974;2024-01-16T06:37:03;-0.30;99.90
52513;DHT22;38422;53.172;6.974;2024-01-16T06:39:29;-0.30;99.90
52513;DHT22;38422;53.172;6.974;2024-01-16T06:41:55;-0.30;99.90
52513;DHT22;38422;53.172;6.974;2024-01-16T06:44:21;-0.30;99.90
52513;DHT22;38422;53.172;6.974;2024-01-16T06:46:46;-0.30;99.90
52513;DHT22;38422;53.172;6.974;2024-01-16T06:49:12;-0.30;99.90
52513;DHT22;38422;53.172;6.974;2024-01-16T06:51:38;-0.30;99.90
52513;DHT22;38422;53.172;6.974;2024-01-16T06:54:04;-0.30;99.90
52513;DHT22;38422;53.172;6.974;2024-01-16T06:56:30;-0.30;99.90
52513;DHT22;38422;53.172;6.974;2024-01-16T06:58:55;-0.20;99.90
52513;DHT22;38422;53.172;6.974;2024-01-16T07:01:21;-0.20;99.90
52513;DHT22;38422;53.172;6.974;2024-01-16T07:03:48;-0.20;99.90
52513;DHT22;38422;53.172;6.974;2024-01-16T07:06:13;-0.20;99.90
52513;DHT22;38422;53.172;6.974;2024-01-16T07:08:39;-0.20;99.90
52513;DHT22;38422;53.172;6.974;2024-01-16T07:11:05;-0.20;99.90
52513;DHT22;38422;53.172;6.974;2024-01-16T07:13:34;-0.20;99.90
52513;DHT22;38422;53.172;6.974;2024-01-16T07:16:00;-0.20;99.90
52513;DHT22;38422;53.172;6.974;2024-01-16T07:18:28;-0.20;99.90
52513;DHT22;38422;53.172;6.974;2024-01-16T07:20:53;-0.20;99.90
52513;DHT22;38422;53.172;6.974;2024-01-16T07:23:20;-0.30;99.90
52513;DHT22;38422;53.172;6.974;2024-01-16T07:25:45;-0.20;99.90
52513;DHT22;38422;53.172;6.974;2024-01-16T07:28:11;-0.30;99.90
52513;DHT22;38422;53.172;6.974;2024-01-16T07:30:37;-0.30;99.90
52513;DHT22;38422;53.172;6.974;2024-01-16T07:33:03;-0.30;99.90
52513;DHT22;38422;53.172;6.974;2024-01-16T07:35:29;-0.40;99.90
52513;DHT22;38422;53.172;6.974;2024-01-16T07:37:55;-0.40;99.90
52513;DHT22;38422;53.172;6.974;2024-01-16T07:40:21;-0.40;99.90
52513;DHT22;38422;53.172;6.974;2024-01-16T07:42:47;-0.40;99.90
52513;DHT22;38422;53.172;6.974;2024-01-16T07:45:13;-0.40;99.90
52513;DHT22;38422;53.172;6.974;2024-01-16T07:47:39;-0.40;99.90
52513;DHT22;38422;53.172;6.974;2024-01-16T07:50:05;-0.40;99.90
52513;DHT22;38422;53.172;6.974;2024-01-16T07:52:32;-0.40;99.90
52513;DHT22;38422;53.172;6.974;2024-01-16T07:54:57;-0.40;99.90
52513;DHT22;38422;53.172;6.974;2024-01-16T07:57:23;-0.40;99.90
52513;DHT22;38422;53.172;6.974;2024-01-16T07:59:49;-0.40;99.90
52513;DHT22;38422;53.172;6.974;2024-01-16T08:02:15;-0.40;99.90
52513;DHT22;38422;53.172;6.974;2024-01-16T08:04:40;-0.40;99.90
52513;DHT22;38422;53.172;6.974;2024-01-16T08:07:07;-0.40;99.90
52513;DHT22;38422;53.172;6.974;2024-01-16T08:09:32;-0.30;99.90
52513;DHT22;38422;53.172;6.974;2024-01-16T08:11:58;-0.30;99.90
52513;DHT22;38422;53.172;6.974;2024-01-16T08:14:24;-0.30;99.90
52513;DHT22;38422;53.172;6.974;2024-01-16T08:16:51;-0.20;99.90
52513;DHT22;38422;53.172;6.974;2024-01-16T08:19:16;-0.20;99.90
52513;DHT22;38422;53.172;6.974;2024-01-16T08:21:42;-0.20;99.90
52513;DHT22;38422;53.172;6.974;2024-01-16T08:24:08;-0.10;99.90
52513;DHT22;38422;53.172;6.974;2024-01-16T08:26:33;-0.10;99.90
52513;DHT22;38422;53.172;6.974;2024-01-16T08:28:59;0.00;99.90
52513;DHT22;38422;53.172;6.974;2024-01-16T08:31:25;0.00;99.90
52513;DHT22;38422;53.172;6.974;2024-01-16T08:33:51;0.10;99.90
52513;DHT22;38422;53.172;6.974;2024-01-16T08:36:17;0.10;99.90
52513;DHT22;38422;53.172;6.974;2024-01-16T08:38:43;0.10;99.90
52513;DHT22;38422;53.172;6.974;2024-01-16T08:41:08;0.10;99.90
52513;DHT22;38422;53.172;6.974;2024-01-16T08:43:34;0.20;99.90
52513;DHT22;38422;53.172;6.974;2024-01-16T08:46:00;0.20;99.90
52513;DHT22;38422;53.172;6.974;2024-01-16T08:48:26;0.20;99.90
52513;DHT22;38422;53.172;6.974;2024-01-16T08:50:52;0.20;99.90
52513;DHT22;38422;53.172;6.974;2024-01-16T08:53:20;0.30;99.90
52513;DHT22;38422;53.172;6.974;2024-01-16T08:55:48;0.30;99.90
52513;DHT22;38422;53.172;6.974;2024-01-16T08:58:14;0.30;99.90
52513;DHT22;38422;53.172;6.974;2024-01-16T09:00:40;0.30;99.90
52513;DHT22;38422;53.172;6.974;2024-01-16T09:03:06;0.30;99.90
52513;DHT22;38422;53.172;6.974;2024-01-16T09:05:33;0.30;99.90
52513;DHT22;38422;53.172;6.974;2024-01-16T09:08:01;0.40;99.90
52513;DHT22;38422;53.172;6.974;2024-01-16T09:10:28;0.40;99.90
52513;DHT22;38422;53.172;6.974;2024-01-16T09:12:55;0.40;99.90
52513;DHT22;38422;53.172;6.974;2024-01-16T09:15:20;0.50;99.90
52513;DHT22;38422;53.172;6.974;2024-01-16T09:17:46;0.50;99.90
52513;DHT22;38422;53.172;6.974;2024-01-16T09:20:12;0.50;99.90
52513;DHT22;38422;53.172;6.974;2024-01-16T09:22:38;0.60;99.90
52513;DHT22;38422;53.172;6.974;2024-01-16T09:25:03;0.60;99.90
52513;DHT22;38422;53.172;6.974;2024-01-16T09:27:30;0.70;99.90
52513;DHT22;38422;53.172;6.974;2024-01-16T09:29:56;0.70;99.90
52513;DHT22;38422;53.172;6.974;2024-01-16T09:32:22;0.70;99.90
52513;DHT22;38422;53.172;6.974;2024-01-16T09:34:47;0.70;99.90
52513;DHT22;38422;53.172;6.974;2024-01-16T09:37:14;0.70;99.90
52513;DHT22;38422;53.172;6.974;2024-01-16T09:39:40;0.70;99.90
52513;DHT22;38422;53.172;6.974;2024-01-16T09:42:06;0.70;99.90
52513;DHT22;38422;53.172;6.974;2024-01-16T09:44:32;0.70;99.90
52513;DHT22;38422;53.172;6.974;2024-01-16T09:47:01;0.80;99.90
52513;DHT22;38422;53.172;6.974;2024-01-16T09:49:27;0.80;99.90
52513;DHT22;38422;53.172;6.974;2024-01-16T09:51:54;0.80;99.90
52513;DHT22;38422;53.172;6.974;2024-01-16T09:54:20;0.90;99.90
52513;DHT22;38422;53.172;6.974;2024-01-16T09:56:48;0.90;99.90
52513;DHT22;38422;53.172;6.974;2024-01-16T09:59:17;0.90;99.90
52513;DHT22;38422;53.172;6.974;2024-01-16T10:01:48;0.90;99.90
52513;DHT22;38422;53.172;6.974;2024-01-16T10:04:15;0.90;99.90
52513;DHT22;38422;53.172;6.974;2024-01-16T10:06:41;1.00;99.90
52513;DHT22;38422;53.172;6.974;2024-01-16T10:09:10;1.00;99.90
52513;DHT22;38422;53.172;6.974;2024-01-16T10:11:37;1.00;99.90
52513;DHT22;38422;53.172;6.974;2024-01-16T10:14:03;0.90;99.90
52513;DHT22;38422;53.172;6.974;2024-01-16T10:16:55;0.90;99.90
52513;DHT22;38422;53.172;6.974;2024-01-16T10:19:21;0.90;99.90
52513;DHT22;38422;53.172;6.974;2024-01-16T10:21:47;0.90;99.90
52513;DHT22;38422;53.172;6.974;2024-01-16T10:24:12;0.90;99.90
52513;DHT22;38422;53.172;6.974;2024-01-16T10:26:38;0.90;99.90
52513;DHT22;38422;53.172;6.974;2024-01-16T10:29:04;0.90;99.90
52513;DHT22;38422;53.172;6.974;2024-01-16T10:31:30;0.80;99.90
52513;DHT22;38422;53.172;6.974;2024-01-16T10:33:56;0.80;99.90
52513;DHT22;38422;53.172;6.974;2024-01-16T10:36:23;0.80;99.90
52513;DHT22;38422;53.172;6.974;2024-01-16T10:38:51;0.90;99.90
52513;DHT22;38422;53.172;6.974;2024-01-16T10:41:23;0.90;99.90
52513;DHT22;38422;53.172;6.974;2024-01-16T10:44:05;0.90;99.90
52513;DHT22;38422;53.172;6.974;2024-01-16T10:46:32;0.90;99.90
52513;DHT22;38422;53.172;6.974;2024-01-16T10:49:03;0.90;99.90
52513;DHT22;38422;53.172;6.974;2024-01-16T10:51:30;1.00;99.90
52513;DHT22;38422;53.172;6.974;2024-01-16T10:53:59;1.00;99.90
52513;DHT22;38422;53.172;6.974;2024-01-16T10:56:27;0.90;99.90
52513;DHT22;38422;53.172;6.974;2024-01-16T10:59:04;0.90;99.90
52513;DHT22;38422;53.172;6.974;2024-01-16T11:01:31;0.90;99.90
52513;DHT22;38422;53.172;6.974;2024-01-16T11:03:58;0.90;99.90
52513;DHT22;38422;53.172;6.974;2024-01-16T11:06:26;0.90;99.90
52513;DHT22;38422;53.172;6.974;2024-01-16T11:08:54;0.90;99.90
52513;DHT22;38422;53.172;6.974;2024-01-16T11:11:22;1.00;99.90
52513;DHT22;38422;53.172;6.974;2024-01-16T11:13:49;1.00;99.90
52513;DHT22;38422;53.172;6.974;2024-01-16T11:16:15;1.00;99.90
52513;DHT22;38422;53.172;6.974;2024-01-16T11:18:41;1.00;99.90
52513;DHT22;38422;53.172;6.974;2024-01-16T11:21:09;1.00;99.90
52513;DHT22;38422;53.172;6.974;2024-01-16T11:23:36;1.00;99.90
52513;DHT22;38422;53.172;6.974;2024-01-16T11:28:50;1.10;99.90
52513;DHT22;38422;53.172;6.974;2024-01-16T11:31:28;1.10;99.90
52513;DHT22;38422;53.172;6.974;2024-01-16T11:33:55;1.10;99.90
52513;DHT22;38422;53.172;6.974;2024-01-16T11:36:52;1.10;99.90
52513;DHT22;38422;53.172;6.974;2024-01-16T11:39:22;1.10;99.90
52513;DHT22;38422;53.172;6.974;2024-01-16T11:41:57;1.10;99.90
52513;DHT22;38422;53.172;6.974;2024-01-16T11:44:37;1.10;99.90
52513;DHT22;38422;53.172;6.974;2024-01-16T11:47:06;1.10;99.90
52513;DHT22;38422;53.172;6.974;2024-01-16T11:49:33;1.10;99.90
52513;DHT22;38422;53.172;6.974;2024-01-16T11:51:59;1.10;99.90
52513;DHT22;38422;53.172;6.974;2024-01-16T11:54:25;1.10;99.90
52513;DHT22;38422;53.172;6.974;2024-01-16T12:00:01;1.20;99.90
52513;DHT22;38422;53.172;6.974;2024-01-16T12:02:46;1.20;99.90
52513;DHT22;38422;53.172;6.974;2024-01-16T12:05:14;1.20;99.90
52513;DHT22;38422;53.172;6.974;2024-01-16T12:07:45;1.20;99.90
52513;DHT22;38422;53.172;6.974;2024-01-16T12:10:11;1.30;99.90
52513;DHT22;38422;53.172;6.974;2024-01-16T12:12:36;1.30;99.90
52513;DHT22;38422;53.172;6.974;2024-01-16T12:15:02;1.30;99.90
52513;DHT22;38422;53.172;6.974;2024-01-16T12:17:29;1.30;99.90
52513;DHT22;38422;53.172;6.974;2024-01-16T12:19:55;1.30;99.90
52513;DHT22;38422;53.172;6.974;2024-01-16T12:22:21;1.30;99.90
52513;DHT22;38422;53.172;6.974;2024-01-16T12:24:48;1.30;99.90
52513;DHT22;38422;53.172;6.974;2024-01-16T12:27:14;1.30;99.90
52513;DHT22;38422;53.172;6.974;2024-01-16T12:29:41;1.20;99.90
52513;DHT22;38422;53.172;6.974;2024-01-16T12:32:10;1.20;99.90
52513;DHT22;38422;53.172;6.974;2024-01-16T12:34:47;1.20;99.90
52513;DHT22;38422;53.172;6.974;2024-01-16T12:37:13;1.20;99.90
52513;DHT22;38422;53.172;6.974;2024-01-16T12:39:40;1.20;99.90
52513;DHT22;38422;53.172;6.974;2024-01-16T12:42:07;1.20;99.90
52513;DHT22;38422;53.172;6.974;2024-01-16T12:44:35;1.30;99.90
52513;DHT22;38422;53.172;6.974;2024-01-16T12:47:01;1.40;99.90
52513;DHT22;38422;53.172;6.974;2024-01-16T12:49:28;1.40;99.90
52513;DHT22;38422;53.172;6.974;2024-01-16T12:52:21;1.50;99.90
52513;DHT22;38422;53.172;6.974;2024-01-16T12:55:01;1.40;99.90
52513;DHT22;38422;53.172;6.974;2024-01-16T12:57:28;1.40;99.90
52513;DHT22;38422;53.172;6.974;2024-01-16T12:59:53;1.40;99.90
52513;DHT22;38422;53.172;6.974;2024-01-16T13:02:22;1.30;99.90
52513;DHT22;38422;53.172;6.974;2024-01-16T13:05:02;1.30;99.90
52513;DHT22;38422;53.172;6.974;2024-01-16T13:07:30;1.30;99.90
52513;DHT22;38422;53.172;6.974;2024-01-16T13:12:34;1.30;99.90
52513;DHT22;38422;53.172;6.974;2024-01-16T13:15:01;1.30;99.90
52513;DHT22;38422;53.172;6.974;2024-01-16T13:17:33;1.30;99.90
52513;DHT22;38422;53.172;6.974;2024-01-16T13:20:00;1.30;99.90
52513;DHT22;38422;53.172;6.974;2024-01-16T13:22:26;1.30;99.90
52513;DHT22;38422;53.172;6.974;2024-01-16T13:24:52;1.30;99.90
52513;DHT22;38422;53.172;6.974;2024-01-16T13:27:17;1.30;99.90
52513;DHT22;38422;53.172;6.974;2024-01-16T13:29:43;1.40;99.90
52513;DHT22;38422;53.172;6.974;2024-01-16T13:32:10;1.40;99.90
52513;DHT22;38422;53.172;6.974;2024-01-16T13:34:36;1.40;99.90
52513;DHT22;38422;53.172;6.974;2024-01-16T13:37:03;1.50;99.90
52513;DHT22;38422;53.172;6.974;2024-01-16T13:39:30;1.60;99.90
52513;DHT22;38422;53.172;6.974;2024-01-16T13:42:01;1.70;99.90
52513;DHT22;38422;53.172;6.974;2024-01-16T13:44:31;1.80;99.90
52513;DHT22;38422;53.172;6.974;2024-01-16T13:46:56;1.80;99.90
52513;DHT22;38422;53.172;6.974;2024-01-16T13:49:22;1.80;99.90
52513;DHT22;38422;53.172;6.974;2024-01-16T13:51:48;1.70;99.90
52513;DHT22;38422;53.172;6.974;2024-01-16T13:54:13;1.70;99.90
52513;DHT22;38422;53.172;6.974;2024-01-16T13:56:40;1.80;99.90
52513;DHT22;38422;53.172;6.974;2024-01-16T13:59:06;1.90;99.90
52513;DHT22;38422;53.172;6.974;2024-01-16T14:01:32;2.00;99.90
52513;DHT22;38422;53.172;6.974;2024-01-16T14:03:58;2.00;99.90
52513;DHT22;38422;53.172;6.974;2024-01-16T14:06:24;2.00;99.90
52513;DHT22;38422;53.172;6.974;2024-01-16T14:08:50;1.90;99.90
52513;DHT22;38422;53.172;6.974;2024-01-16T14:11:15;1.90;99.90
52513;DHT22;38422;53.172;6.974;2024-01-16T14:13:41;1.80;99.90
52513;DHT22;38422;53.172;6.974;2024-01-16T14:16:08;1.70;99.90
52513;DHT22;38422;53.172;6.974;2024-01-16T14:18:34;1.60;99.90
52513;DHT22;38422;53.172;6.974;2024-01-16T14:20:59;1.50;99.90
52513;DHT22;38422;53.172;6.974;2024-01-16T14:23:25;1.50;99.90
52513;DHT22;38422;53.172;6.974;2024-01-16T14:25:50;1.40;99.90
52513;DHT22;38422;53.172;6.974;2024-01-16T14:28:16;1.40;99.90
52513;DHT22;38422;53.172;6.974;2024-01-16T14:30:42;1.30;99.90
52513;DHT22;38422;53.172;6.974;2024-01-16T14:33:08;1.30;99.90
52513;DHT22;38422;53.172;6.974;2024-01-16T14:35:34;1.30;99.90
52513;DHT22;38422;53.172;6.974;2024-01-16T14:37:59;1.30;99.90
52513;DHT22;38422;53.172;6.974;2024-01-16T14:40:25;1.30;99.90
52513;DHT22;38422;53.172;6.974;2024-01-16T14:42:52;1.30;99.90
52513;DHT22;38422;53.172;6.974;2024-01-16T14:45:22;1.30;99.90
52513;DHT22;38422;53.172;6.974;2024-01-16T14:47:49;1.30;99.90
52513;DHT22;38422;53.172;6.974;2024-01-16T14:50:16;1.30;99.90
52513;DHT22;38422;53.172;6.974;2024-01-16T14:52:50;1.30;99.90
52513;DHT22;38422;53.172;6.974;2024-01-16T14:55:16;1.30;99.90
52513;DHT22;38422;53.172;6.974;2024-01-16T14:57:42;1.30;99.90
52513;DHT22;38422;53.172;6.974;2024-01-16T15:00:10;1.20;99.90
52513;DHT22;38422;53.172;6.974;2024-01-16T15:02:51;1.20;99.90
52513;DHT22;38422;53.172;6.974;2024-01-16T15:05:18;1.20;99.90
52513;DHT22;38422;53.172;6.974;2024-01-16T15:07:45;1.10;99.90
52513;DHT22;38422;53.172;6.974;2024-01-16T15:10:11;1.10;99.90
52513;DHT22;38422;53.172;6.974;2024-01-16T15:12:44;1.10;99.90
52513;DHT22;38422;53.172;6.974;2024-01-16T15:15:15;1.10;99.90
52513;DHT22;38422;53.172;6.974;2024-01-16T15:17:44;1.10;99.90
52513;DHT22;38422;53.172;6.974;2024-01-16T15:20:10;1.10;99.90
52513;DHT22;38422;53.172;6.974;2024-01-16T15:22:44;1.10;99.90
52513;DHT22;38422;53.172;6.974;2024-01-16T15:25:11;1.10;99.90
52513;DHT22;38422;53.172;6.974;2024-01-16T15:27:38;1.00;99.90
52513;DHT22;38422;53.172;6.974;2024-01-16T15:30:04;1.00;99.90
52513;DHT22;38422;53.172;6.974;2024-01-16T15:32:31;1.00;99.90
52513;DHT22;38422;53.172;6.974;2024-01-16T15:34:57;1.00;99.90
52513;DHT22;38422;53.172;6.974;2024-01-16T15:37:23;1.00;99.90
52513;DHT22;38422;53.172;6.974;2024-01-16T15:39:48;1.00;99.90
52513;DHT22;38422;53.172;6.974;2024-01-16T15:42:14;0.90;99.90
52513;DHT22;38422;53.172;6.974;2024-01-16T15:44:40;0.90;99.90
52513;DHT22;38422;53.172;6.974;2024-01-16T15:47:06;0.90;99.90